EZY54ED EGKK-EDDL
Flight info
| Callsign | EZY54ED |
|---|---|
| Flight time | 0h 55m |
| Altitude | 33000 |
| Route | MIMFO Y312 DVR UL9 KONAN DCT KOK DCT DENOX DCT SPI Y862 KENUM M170 NVO T857 BIKMU BIKMU1A |
| Aircraft | A320/M-SDE2E3FGHIJ1RWXYZ/LB1 |
Departure
| Time | 2026-04-15 10:48 |
|---|---|
| Airport | London Gatwick Airport (EGKK) |
Arrival
| Time | 2026-04-15 11:43 |
|---|---|
| Airport | Düsseldorf Airport (EDDL) |
| Time | Latitude | Longitude | Altitude | Speed | Heading |
|---|---|---|---|---|---|
| 2026-04-15 10:27 | 51.15658 | -0.17694 | 212 ft | 0 kts | 167° |
| 2026-04-15 10:38 | 51.15659 | -0.17694 | 204 ft | 0 kts | 167° |
| 2026-04-15 10:39 | 51.15680 | -0.17702 | 207 ft | 4 kts | 162° |
| 2026-04-15 10:39 | 51.15704 | -0.17718 | 212 ft | 4 kts | 148° |
| 2026-04-15 10:39 | 51.15723 | -0.17745 | 212 ft | 4 kts | 105° |
| 2026-04-15 10:39 | 51.15724 | -0.17766 | 208 ft | 1 kts | 73° |
| 2026-04-15 10:40 | 51.15723 | -0.17769 | 207 ft | 1 kts | 73° |
| 2026-04-15 10:42 | 51.15725 | -0.17760 | 210 ft | 3 kts | 73° |
| 2026-04-15 10:43 | 51.15732 | -0.17717 | 211 ft | 4 kts | 75° |
| 2026-04-15 10:43 | 51.15747 | -0.17621 | 205 ft | 11 kts | 77° |
| 2026-04-15 10:43 | 51.15744 | -0.17514 | 216 ft | 9 kts | 130° |
| 2026-04-15 10:43 | 51.15681 | -0.17485 | 204 ft | 10 kts | 169° |
| 2026-04-15 10:44 | 51.15608 | -0.17458 | 204 ft | 11 kts | 167° |
| 2026-04-15 10:44 | 51.15524 | -0.17430 | 208 ft | 13 kts | 168° |
| 2026-04-15 10:44 | 51.15431 | -0.17397 | 213 ft | 14 kts | 167° |
| 2026-04-15 10:44 | 51.15328 | -0.17362 | 204 ft | 16 kts | 168° |
| 2026-04-15 10:45 | 51.15240 | -0.17273 | 210 ft | 16 kts | 98° |
| 2026-04-15 10:45 | 51.15264 | -0.17099 | 211 ft | 16 kts | 77° |
| 2026-04-15 10:45 | 51.15286 | -0.16941 | 204 ft | 14 kts | 77° |
| 2026-04-15 10:45 | 51.15279 | -0.16830 | 216 ft | 0 kts | 137° |
| 2026-04-15 10:46 | 51.15277 | -0.16828 | 216 ft | 2 kts | 141° |
| 2026-04-15 10:46 | 51.15243 | -0.16812 | 209 ft | 7 kts | 164° |
| 2026-04-15 10:46 | 51.15192 | -0.16794 | 204 ft | 9 kts | 169° |
| 2026-04-15 10:47 | 51.15124 | -0.16815 | 212 ft | 11 kts | 226° |
| 2026-04-15 10:47 | 51.15101 | -0.16953 | 210 ft | 18 kts | 257° |
| 2026-04-15 10:47 | 51.15023 | -0.17488 | 211 ft | 84 kts | 257° |
| 2026-04-15 10:47 | 51.14857 | -0.18697 | 202 ft | 140 kts | 257° |
| 2026-04-15 10:48 | 51.14613 | -0.20409 | 423 ft | 165 kts | 254° |
| 2026-04-15 10:48 | 51.14375 | -0.22195 | 1154 ft | 164 kts | 251° |
| 2026-04-15 10:48 | 51.14135 | -0.23987 | 1787 ft | 172 kts | 253° |
| 2026-04-15 10:48 | 51.13865 | -0.25971 | 2113 ft | 195 kts | 253° |
| 2026-04-15 10:49 | 51.13723 | -0.28222 | 2670 ft | 214 kts | 272° |
| 2026-04-15 10:49 | 51.14308 | -0.30473 | 3468 ft | 233 kts | 302° |
| 2026-04-15 10:49 | 51.15653 | -0.32061 | 3920 ft | 253 kts | 337° |
| 2026-04-15 10:49 | 51.17410 | -0.32169 | 3999 ft | 260 kts | 16° |
| 2026-04-15 10:50 | 51.18882 | -0.30606 | 4010 ft | 256 kts | 57° |
| 2026-04-15 10:50 | 51.19502 | -0.28036 | 4016 ft | 248 kts | 87° |
| 2026-04-15 10:50 | 51.19751 | -0.25289 | 4028 ft | 258 kts | 90° |
| 2026-04-15 10:50 | 51.19915 | -0.22318 | 4553 ft | 276 kts | 91° |
| 2026-04-15 10:51 | 51.20058 | -0.19241 | 5395 ft | 281 kts | 91° |
| 2026-04-15 10:51 | 51.20209 | -0.16111 | 6286 ft | 284 kts | 91° |
| 2026-04-15 10:51 | 51.20370 | -0.12957 | 7128 ft | 287 kts | 91° |
| 2026-04-15 10:51 | 51.20529 | -0.09760 | 7909 ft | 291 kts | 91° |
| 2026-04-15 10:52 | 51.20682 | -0.06512 | 8678 ft | 297 kts | 91° |
| 2026-04-15 10:52 | 51.20827 | -0.03198 | 8995 ft | 301 kts | 91° |
| 2026-04-15 10:52 | 51.20969 | 0.00127 | 8921 ft | 301 kts | 91° |
| 2026-04-15 10:52 | 51.21112 | 0.03456 | 8912 ft | 301 kts | 91° |
| 2026-04-15 10:53 | 51.21255 | 0.06783 | 8890 ft | 301 kts | 91° |
| 2026-04-15 10:53 | 51.21397 | 0.10112 | 8859 ft | 301 kts | 91° |
| 2026-04-15 10:53 | 51.21540 | 0.13443 | 8833 ft | 301 kts | 91° |
| 2026-04-15 10:53 | 51.21653 | 0.16766 | 8809 ft | 299 kts | 96° |
| 2026-04-15 10:54 | 51.21563 | 0.20097 | 9432 ft | 301 kts | 98° |
| 2026-04-15 10:54 | 51.21440 | 0.23409 | 10093 ft | 310 kts | 99° |
| 2026-04-15 10:54 | 51.21339 | 0.25778 | 10252 ft | 325 kts | 99° |
| 2026-04-15 10:54 | 51.21122 | 0.30723 | 10794 ft | 345 kts | 99° |
| 2026-04-15 10:55 | 51.20961 | 0.34560 | 11484 ft | 349 kts | 98° |
| 2026-04-15 10:55 | 51.20804 | 0.38447 | 12223 ft | 353 kts | 98° |
| 2026-04-15 10:55 | 51.20647 | 0.42379 | 12954 ft | 357 kts | 98° |
| 2026-04-15 10:55 | 51.20540 | 0.45055 | 13440 ft | 359 kts | 98° |
| 2026-04-15 10:56 | 51.20380 | 0.49051 | 14043 ft | 363 kts | 98° |
| 2026-04-15 10:56 | 51.20215 | 0.53101 | 14646 ft | 367 kts | 98° |
| 2026-04-15 10:56 | 51.20045 | 0.57177 | 15249 ft | 371 kts | 98° |
| 2026-04-15 10:56 | 51.19870 | 0.61297 | 15890 ft | 375 kts | 98° |
| 2026-04-15 10:57 | 51.19694 | 0.65403 | 16527 ft | 378 kts | 98° |
| 2026-04-15 10:57 | 51.19331 | 0.73863 | 17788 ft | 386 kts | 99° |
| 2026-04-15 10:57 | 51.19145 | 0.78146 | 18377 ft | 390 kts | 99° |
| 2026-04-15 10:58 | 51.18957 | 0.82472 | 18926 ft | 393 kts | 99° |
| 2026-04-15 10:58 | 51.18765 | 0.86842 | 19483 ft | 396 kts | 99° |
| 2026-04-15 10:58 | 51.18568 | 0.91242 | 20036 ft | 399 kts | 99° |
| 2026-04-15 10:58 | 51.18368 | 0.95663 | 20599 ft | 402 kts | 99° |
| 2026-04-15 10:59 | 51.18165 | 1.00134 | 21079 ft | 406 kts | 98° |
| 2026-04-15 10:59 | 51.17958 | 1.04641 | 21556 ft | 409 kts | 98° |
| 2026-04-15 10:59 | 51.17749 | 1.09170 | 22033 ft | 412 kts | 99° |
| 2026-04-15 10:59 | 51.17537 | 1.13743 | 22503 ft | 415 kts | 99° |
| 2026-04-15 11:00 | 51.17322 | 1.18341 | 22982 ft | 418 kts | 99° |
| 2026-04-15 11:00 | 51.17101 | 1.22978 | 23449 ft | 421 kts | 99° |
| 2026-04-15 11:00 | 51.16878 | 1.27646 | 23874 ft | 424 kts | 99° |
| 2026-04-15 11:00 | 51.16653 | 1.32352 | 24255 ft | 427 kts | 99° |
| 2026-04-15 11:01 | 51.16426 | 1.37080 | 24644 ft | 429 kts | 99° |
| 2026-04-15 11:01 | 51.16196 | 1.41832 | 25013 ft | 431 kts | 99° |
| 2026-04-15 11:01 | 51.15961 | 1.46611 | 25342 ft | 434 kts | 99° |
| 2026-04-15 11:01 | 51.15722 | 1.51417 | 25688 ft | 437 kts | 99° |
| 2026-04-15 11:02 | 51.15475 | 1.56260 | 26042 ft | 440 kts | 99° |
| 2026-04-15 11:02 | 51.15225 | 1.61131 | 26399 ft | 442 kts | 99° |
| 2026-04-15 11:02 | 51.14974 | 1.66013 | 26752 ft | 444 kts | 99° |
| 2026-04-15 11:02 | 51.14722 | 1.70931 | 27108 ft | 447 kts | 99° |
| 2026-04-15 11:03 | 51.14467 | 1.75875 | 27452 ft | 449 kts | 99° |
| 2026-04-15 11:03 | 51.14208 | 1.80841 | 27798 ft | 451 kts | 99° |
| 2026-04-15 11:03 | 51.13949 | 1.85833 | 28130 ft | 454 kts | 99° |
| 2026-04-15 11:03 | 51.13686 | 1.90841 | 28453 ft | 456 kts | 99° |
| 2026-04-15 11:04 | 51.13419 | 1.95816 | 28788 ft | 458 kts | 99° |
| 2026-04-15 11:04 | 51.13145 | 2.00868 | 29110 ft | 460 kts | 99° |
| 2026-04-15 11:04 | 51.12864 | 2.05956 | 29438 ft | 462 kts | 99° |
| 2026-04-15 11:04 | 51.12581 | 2.11067 | 29769 ft | 464 kts | 99° |
| 2026-04-15 11:05 | 51.12296 | 2.16198 | 30073 ft | 467 kts | 99° |
| 2026-04-15 11:05 | 51.12008 | 2.21356 | 30342 ft | 469 kts | 99° |
| 2026-04-15 11:05 | 51.11718 | 2.26534 | 30583 ft | 471 kts | 99° |
| 2026-04-15 11:05 | 51.11425 | 2.31724 | 30822 ft | 473 kts | 99° |
| 2026-04-15 11:06 | 51.11127 | 2.36946 | 31040 ft | 474 kts | 99° |
| 2026-04-15 11:06 | 51.10826 | 2.42183 | 31283 ft | 476 kts | 98° |
| 2026-04-15 11:06 | 51.10523 | 2.47430 | 31589 ft | 476 kts | 98° |
| 2026-04-15 11:06 | 51.10219 | 2.52670 | 31920 ft | 475 kts | 99° |
| 2026-04-15 11:07 | 51.09912 | 2.57890 | 32268 ft | 474 kts | 99° |
| 2026-04-15 11:07 | 51.09598 | 2.63114 | 32595 ft | 473 kts | 100° |
| 2026-04-15 11:07 | 51.09023 | 2.68245 | 32908 ft | 469 kts | 108° |
| 2026-04-15 11:07 | 51.08257 | 2.73287 | 33110 ft | 469 kts | 108° |
| 2026-04-15 11:08 | 51.06765 | 2.83166 | 33138 ft | 454 kts | 108° |
| 2026-04-15 11:08 | 51.05291 | 2.92893 | 33139 ft | 452 kts | 107° |
| 2026-04-15 11:09 | 51.03814 | 3.02543 | 33144 ft | 452 kts | 107° |
| 2026-04-15 11:09 | 51.02321 | 3.12246 | 33146 ft | 452 kts | 107° |
| 2026-04-15 11:10 | 51.00817 | 3.21933 | 33154 ft | 452 kts | 107° |
| 2026-04-15 11:10 | 50.99304 | 3.31618 | 33129 ft | 452 kts | 107° |
| 2026-04-15 11:11 | 50.97789 | 3.41303 | 33135 ft | 452 kts | 107° |
| 2026-04-15 11:11 | 50.96263 | 3.50980 | 33141 ft | 452 kts | 107° |
| 2026-04-15 11:12 | 50.94723 | 3.60664 | 33153 ft | 453 kts | 107° |
| 2026-04-15 11:12 | 50.93182 | 3.70337 | 33150 ft | 453 kts | 107° |
| 2026-04-15 11:13 | 50.91634 | 3.80002 | 33156 ft | 453 kts | 106° |
| 2026-04-15 11:13 | 50.90076 | 3.89672 | 33159 ft | 453 kts | 106° |
| 2026-04-15 11:14 | 50.88505 | 3.99327 | 33164 ft | 453 kts | 107° |
| 2026-04-15 11:14 | 50.86773 | 4.08856 | 33167 ft | 452 kts | 110° |
| 2026-04-15 11:15 | 50.84655 | 4.18287 | 33174 ft | 452 kts | 113° |
| 2026-04-15 11:15 | 50.82459 | 4.27601 | 33175 ft | 452 kts | 112° |
| 2026-04-15 11:16 | 50.80338 | 4.36898 | 33177 ft | 453 kts | 112° |
| 2026-04-15 11:16 | 50.78254 | 4.46279 | 33168 ft | 452 kts | 111° |
| 2026-04-15 11:17 | 50.76166 | 4.55649 | 33172 ft | 452 kts | 111° |
| 2026-04-15 11:17 | 50.74059 | 4.65001 | 33171 ft | 452 kts | 112° |
| 2026-04-15 11:18 | 50.71935 | 4.74327 | 33174 ft | 452 kts | 111° |
| 2026-04-15 11:18 | 50.69805 | 4.83661 | 33174 ft | 453 kts | 111° |
| 2026-04-15 11:19 | 50.67665 | 4.93002 | 33185 ft | 453 kts | 111° |
| 2026-04-15 11:19 | 50.65513 | 5.02347 | 33193 ft | 453 kts | 111° |
| 2026-04-15 11:20 | 50.63353 | 5.11678 | 33205 ft | 453 kts | 111° |
| 2026-04-15 11:20 | 50.62270 | 5.16353 | 32695 ft | 457 kts | 111° |
| 2026-04-15 11:20 | 50.61177 | 5.21061 | 32057 ft | 457 kts | 111° |
| 2026-04-15 11:21 | 50.60089 | 5.25734 | 31538 ft | 453 kts | 111° |
| 2026-04-15 11:21 | 50.59017 | 5.30311 | 31015 ft | 450 kts | 111° |
| 2026-04-15 11:21 | 50.57937 | 5.34920 | 30494 ft | 448 kts | 111° |
| 2026-04-15 11:21 | 50.56864 | 5.39501 | 29935 ft | 445 kts | 111° |
| 2026-04-15 11:22 | 50.55800 | 5.44032 | 29443 ft | 440 kts | 111° |
| 2026-04-15 11:22 | 50.54742 | 5.48520 | 28956 ft | 435 kts | 111° |
| 2026-04-15 11:22 | 50.53701 | 5.52941 | 28483 ft | 430 kts | 110° |
| 2026-04-15 11:22 | 50.52930 | 5.57441 | 28023 ft | 425 kts | 98° |
| 2026-04-15 11:23 | 50.52789 | 5.62040 | 27569 ft | 419 kts | 85° |
| 2026-04-15 11:23 | 50.53265 | 5.66514 | 27118 ft | 413 kts | 72° |
| 2026-04-15 11:23 | 50.54307 | 5.70676 | 26669 ft | 406 kts | 60° |
| 2026-04-15 11:23 | 50.55633 | 5.74568 | 26217 ft | 403 kts | 60° |
| 2026-04-15 11:24 | 50.56951 | 5.78438 | 25734 ft | 400 kts | 60° |
| 2026-04-15 11:24 | 50.58256 | 5.82283 | 25289 ft | 397 kts | 60° |
| 2026-04-15 11:24 | 50.59549 | 5.86110 | 24799 ft | 395 kts | 60° |
| 2026-04-15 11:24 | 50.60835 | 5.89924 | 24334 ft | 393 kts | 61° |
| 2026-04-15 11:25 | 50.62114 | 5.93725 | 23851 ft | 392 kts | 61° |
| 2026-04-15 11:25 | 50.63387 | 5.97516 | 23323 ft | 391 kts | 61° |
| 2026-04-15 11:25 | 50.64652 | 6.01282 | 22860 ft | 388 kts | 61° |
| 2026-04-15 11:25 | 50.65908 | 6.05026 | 22373 ft | 385 kts | 61° |
| 2026-04-15 11:26 | 50.67153 | 6.08745 | 21920 ft | 383 kts | 61° |
| 2026-04-15 11:26 | 50.68390 | 6.12443 | 21459 ft | 380 kts | 61° |
| 2026-04-15 11:26 | 50.69621 | 6.16120 | 21017 ft | 378 kts | 61° |
| 2026-04-15 11:26 | 50.70849 | 6.19771 | 20572 ft | 376 kts | 61° |
| 2026-04-15 11:27 | 50.72068 | 6.23411 | 20146 ft | 374 kts | 63° |
| 2026-04-15 11:27 | 50.73064 | 6.27134 | 19718 ft | 373 kts | 68° |
| 2026-04-15 11:27 | 50.74025 | 6.30929 | 19270 ft | 371 kts | 68° |
| 2026-04-15 11:27 | 50.74985 | 6.34706 | 18842 ft | 370 kts | 68° |
| 2026-04-15 11:28 | 50.75942 | 6.38475 | 18393 ft | 369 kts | 68° |
| 2026-04-15 11:28 | 50.76887 | 6.42222 | 18000 ft | 365 kts | 68° |
| 2026-04-15 11:28 | 50.77825 | 6.45949 | 17512 ft | 364 kts | 68° |
| 2026-04-15 11:28 | 50.78757 | 6.49652 | 17095 ft | 361 kts | 68° |
| 2026-04-15 11:29 | 50.79681 | 6.53321 | 16687 ft | 359 kts | 68° |
| 2026-04-15 11:29 | 50.80609 | 6.56964 | 16295 ft | 356 kts | 65° |
| 2026-04-15 11:29 | 50.81914 | 6.60249 | 15916 ft | 352 kts | 48° |
| 2026-04-15 11:29 | 50.83746 | 6.62768 | 15491 ft | 349 kts | 30° |
| 2026-04-15 11:30 | 50.85940 | 6.64312 | 15094 ft | 344 kts | 13° |
| 2026-04-15 11:30 | 50.88284 | 6.64938 | 14705 ft | 341 kts | 5° |
| 2026-04-15 11:30 | 50.90627 | 6.65427 | 14303 ft | 339 kts | 6° |
| 2026-04-15 11:30 | 50.92964 | 6.65921 | 13933 ft | 338 kts | 6° |
| 2026-04-15 11:31 | 50.95285 | 6.66418 | 13504 ft | 336 kts | 6° |
| 2026-04-15 11:31 | 50.97593 | 6.66918 | 13107 ft | 334 kts | 6° |
| 2026-04-15 11:31 | 50.99885 | 6.67417 | 12712 ft | 332 kts | 6° |
| 2026-04-15 11:31 | 51.02169 | 6.67868 | 12309 ft | 329 kts | 1° |
| 2026-04-15 11:32 | 51.04437 | 6.67781 | 11918 ft | 325 kts | 355° |
| 2026-04-15 11:32 | 51.06687 | 6.67590 | 11532 ft | 323 kts | 355° |
| 2026-04-15 11:32 | 51.08929 | 6.67401 | 11139 ft | 321 kts | 355° |
| 2026-04-15 11:32 | 51.11158 | 6.67590 | 10742 ft | 322 kts | 9° |
| 2026-04-15 11:33 | 51.13319 | 6.68500 | 10442 ft | 318 kts | 14° |
| 2026-04-15 11:33 | 51.15408 | 6.69461 | 10313 ft | 308 kts | 15° |
| 2026-04-15 11:33 | 51.17434 | 6.70393 | 9794 ft | 300 kts | 15° |
| 2026-04-15 11:33 | 51.19433 | 6.71310 | 9180 ft | 297 kts | 15° |
| 2026-04-15 11:34 | 51.21387 | 6.72203 | 8753 ft | 287 kts | 15° |
| 2026-04-15 11:34 | 51.23241 | 6.73049 | 8382 ft | 276 kts | 15° |
| 2026-04-15 11:34 | 51.25058 | 6.73880 | 8008 ft | 270 kts | 15° |
| 2026-04-15 11:34 | 51.26872 | 6.74712 | 7625 ft | 271 kts | 16° |
| 2026-04-15 11:35 | 51.28610 | 6.75845 | 7252 ft | 270 kts | 30° |
| 2026-04-15 11:35 | 51.30162 | 6.77540 | 6864 ft | 270 kts | 38° |
| 2026-04-15 11:35 | 51.31671 | 6.79326 | 6478 ft | 270 kts | 38° |
| 2026-04-15 11:35 | 51.33187 | 6.81110 | 6050 ft | 270 kts | 38° |
| 2026-04-15 11:36 | 51.34704 | 6.82889 | 5650 ft | 271 kts | 38° |
| 2026-04-15 11:36 | 51.36222 | 6.84671 | 5250 ft | 270 kts | 38° |
| 2026-04-15 11:36 | 51.37738 | 6.86453 | 4839 ft | 270 kts | 38° |
| 2026-04-15 11:36 | 51.39250 | 6.88234 | 4412 ft | 269 kts | 38° |
| 2026-04-15 11:37 | 51.40736 | 6.89981 | 4247 ft | 259 kts | 38° |
| 2026-04-15 11:37 | 51.42164 | 6.91662 | 4042 ft | 250 kts | 38° |
| 2026-04-15 11:37 | 51.43532 | 6.93277 | 3916 ft | 239 kts | 38° |
| 2026-04-15 11:37 | 51.44723 | 6.95060 | 3846 ft | 232 kts | 59° |
| 2026-04-15 11:38 | 51.45204 | 6.97455 | 3792 ft | 225 kts | 92° |
| 2026-04-15 11:38 | 51.44849 | 6.99844 | 3729 ft | 219 kts | 123° |
| 2026-04-15 11:38 | 51.43826 | 7.01577 | 3674 ft | 215 kts | 152° |
| 2026-04-15 11:38 | 51.42425 | 7.02287 | 3624 ft | 211 kts | 179° |
| 2026-04-15 11:39 | 51.40999 | 7.01839 | 3580 ft | 208 kts | 206° |
| 2026-04-15 11:39 | 51.39906 | 7.00417 | 3496 ft | 201 kts | 230° |
| 2026-04-15 11:39 | 51.39085 | 6.98683 | 3318 ft | 194 kts | 231° |
| 2026-04-15 11:39 | 51.38290 | 6.96983 | 3063 ft | 189 kts | 231° |
| 2026-04-15 11:40 | 51.37507 | 6.95321 | 2807 ft | 185 kts | 231° |
| 2026-04-15 11:40 | 51.36755 | 6.93726 | 2551 ft | 174 kts | 230° |
| 2026-04-15 11:40 | 51.36045 | 6.92225 | 2350 ft | 165 kts | 230° |
| 2026-04-15 11:40 | 51.35382 | 6.90825 | 2124 ft | 150 kts | 229° |
| 2026-04-15 11:41 | 51.34773 | 6.89539 | 1898 ft | 142 kts | 230° |
| 2026-04-15 11:41 | 51.34182 | 6.88293 | 1722 ft | 140 kts | 229° |
| 2026-04-15 11:41 | 51.33599 | 6.87065 | 1525 ft | 138 kts | 228° |
| 2026-04-15 11:41 | 51.33024 | 6.85852 | 1350 ft | 136 kts | 227° |
| 2026-04-15 11:42 | 51.32453 | 6.84650 | 1178 ft | 137 kts | 229° |
| 2026-04-15 11:42 | 51.31877 | 6.83436 | 991 ft | 137 kts | 229° |
| 2026-04-15 11:42 | 51.31298 | 6.82217 | 802 ft | 138 kts | 230° |
| 2026-04-15 11:42 | 51.30709 | 6.80978 | 634 ft | 141 kts | 227° |
| 2026-04-15 11:43 | 51.30124 | 6.79741 | 420 ft | 138 kts | 229° |
| 2026-04-15 11:43 | 51.29543 | 6.78513 | 226 ft | 139 kts | 229° |
| 2026-04-15 11:43 | 51.28973 | 6.77338 | 127 ft | 120 kts | 232° |
| 2026-04-15 11:43 | 51.28659 | 6.76659 | 126 ft | 28 kts | 233° |
| 2026-04-15 11:44 | 51.28595 | 6.76662 | 124 ft | 11 kts | 143° |
| 2026-04-15 11:44 | 51.28528 | 6.76744 | 123 ft | 13 kts | 142° |
| 2026-04-15 11:44 | 51.28452 | 6.76698 | 123 ft | 15 kts | 232° |
| 2026-04-15 11:44 | 51.28386 | 6.76559 | 124 ft | 17 kts | 233° |
| 2026-04-15 11:45 | 51.28294 | 6.76505 | 124 ft | 15 kts | 163° |
| 2026-04-15 11:45 | 51.28207 | 6.76447 | 126 ft | 14 kts | 214° |
| 2026-04-15 11:45 | 51.28156 | 6.76448 | 123 ft | 6 kts | 113° |
| 2026-04-15 11:45 | 51.28153 | 6.76502 | 127 ft | 4 kts | 95° |
| 2026-04-15 11:46 | 51.28151 | 6.76531 | 127 ft | 2 kts | 97° |
| 2026-04-15 11:46 | 51.28150 | 6.76540 | 127 ft | 0 kts | 97° |